createdAt,value
2023-03-06T00:01:29.896Z,98860.20
2023-03-06T00:06:33.952Z,98860.70
2023-03-06T00:11:37.636Z,98856.52
2023-03-06T00:16:41.192Z,98855.70
2023-03-06T00:21:44.328Z,98854.47
2023-03-06T00:26:48.743Z,98854.32
2023-03-06T00:31:52.416Z,98858.06
2023-03-06T00:36:55.436Z,98851.95
2023-03-06T00:41:58.042Z,98851.55
2023-03-06T00:47:01.607Z,98850.02
2023-03-06T00:52:05.225Z,98842.35
2023-03-06T00:57:08.019Z,98836.91
2023-03-06T01:02:11.133Z,98842.69
2023-03-06T01:07:15.659Z,98837.19
2023-03-06T01:12:18.929Z,98834.84
2023-03-06T01:17:21.727Z,98830.95
2023-03-06T01:22:25.476Z,98830.91
2023-03-06T01:27:28.864Z,98829.05
2023-03-06T01:32:33.240Z,98821.98
2023-03-06T01:37:37.532Z,98823.57
2023-03-06T01:42:41.737Z,98820.86
2023-03-06T01:47:45.212Z,98821.02
2023-03-06T01:52:57.688Z,98818.18
2023-03-06T01:58:06.260Z,98816.52
2023-03-06T02:03:10.767Z,98810.54
2023-03-06T02:08:18.410Z,98810.67
2023-03-06T02:13:21.513Z,98808.52
2023-03-06T02:18:25.657Z,98800.53
2023-03-06T02:23:39.144Z,98797.95
2023-03-06T02:28:41.573Z,98798.48
2023-03-06T02:33:43.891Z,98797.14
2023-03-06T02:38:49.995Z,98793.74
2023-03-06T02:43:53.303Z,98792.34
2023-03-06T02:48:57.738Z,98784.44
2023-03-06T02:54:00.135Z,98783.13
2023-03-06T02:59:02.561Z,98781.18
2023-03-06T03:04:05.891Z,98777.41
2023-03-06T03:09:10.123Z,98774.58
2023-03-06T03:14:12.934Z,98770.43
2023-03-06T03:19:15.731Z,98764.18
2023-03-06T03:24:19.281Z,98762.15
2023-03-06T03:29:21.628Z,98765.05
2023-03-06T03:34:23.743Z,98764.86
2023-03-06T03:39:25.785Z,98760.95
2023-03-06T03:44:27.602Z,98753.61
2023-03-06T03:49:29.375Z,98745.57
2023-03-06T03:54:31.124Z,98740.56
2023-03-06T03:59:36.311Z,98735.05
2023-03-06T04:04:39.771Z,98732.56
2023-03-06T04:09:43.394Z,98734.81
2023-03-06T04:14:46.567Z,98733.44
2023-03-06T04:19:50.020Z,98735.80
2023-03-06T04:24:53.196Z,98726.67
2023-03-06T04:29:56.566Z,98722.68
2023-03-06T04:35:00.539Z,98718.76
2023-03-06T04:40:04.550Z,98709.67
2023-03-06T04:45:08.492Z,98698.98
2023-03-06T04:50:11.943Z,98694.70
2023-03-06T04:55:17.705Z,98691.64
2023-03-06T05:00:23.853Z,98692.08
2023-03-06T05:05:28.246Z,98696.16
2023-03-06T05:10:30.970Z,98683.29
2023-03-06T05:15:33.641Z,98684.43
2023-03-06T05:20:37.364Z,98697.68
2023-03-06T05:25:41.136Z,98694.33
2023-03-06T05:30:45.027Z,98694.59
2023-03-06T05:35:49.073Z,98693.92
2023-03-06T05:40:51.519Z,98692.02
2023-03-06T05:46:05.503Z,98688.60
2023-03-06T05:51:07.681Z,98686.08
2023-03-06T05:56:10.377Z,98685.68
2023-03-06T06:01:17.164Z,98681.03
2023-03-06T06:06:20.441Z,98678.83
2023-03-06T06:11:24.559Z,98669.59
2023-03-06T06:16:27.876Z,98665.30
2023-03-06T06:21:31.655Z,98667.48
2023-03-06T06:26:35.826Z,98663.27
2023-03-06T06:31:39.679Z,98663.91
2023-03-06T06:36:43.257Z,98663.39
2023-03-06T06:41:59.778Z,98661.79
2023-03-06T06:47:26.102Z,98654.36
2023-03-06T06:52:29.847Z,98648.55
2023-03-06T06:57:33.852Z,98641.95
2023-03-06T07:02:36.794Z,98639.45
2023-03-06T07:07:41.307Z,98632.16
2023-03-06T07:12:44.704Z,98628.80
2023-03-06T07:17:50.189Z,98629.87
2023-03-06T07:22:54.681Z,98621.05
2023-03-06T07:27:58.534Z,98619.82
2023-03-06T07:33:01.922Z,98618.26
2023-03-06T07:38:04.602Z,98611.16
2023-03-06T07:43:18.754Z,98608.41
2023-03-06T07:48:23.558Z,98609.10
2023-03-06T07:53:27.825Z,98608.91
2023-03-06T07:58:32.821Z,98607.53
2023-03-06T08:03:37.077Z,98607.31
2023-03-06T08:08:41.724Z,98605.92
2023-03-06T08:13:45.892Z,98597.48
2023-03-06T08:18:49.587Z,98593.58
2023-03-06T08:23:53.035Z,98582.83
2023-03-06T08:28:59.798Z,98575.92
2023-03-06T08:34:05.549Z,98573.89
2023-03-06T08:39:09.120Z,98570.89
2023-03-06T08:44:13.360Z,98570.66
2023-03-06T08:49:16.651Z,98563.73
2023-03-06T08:54:20.378Z,98564.65
2023-03-06T08:59:24.784Z,98567.09
2023-03-06T09:04:31.206Z,98565.80
2023-03-06T09:09:33.391Z,98564.79
2023-03-06T09:14:36.156Z,98563.40
2023-03-06T09:19:39.458Z,98559.17
2023-03-06T09:24:42.612Z,98557.91
2023-03-06T09:29:45.871Z,98556.98
2023-03-06T09:34:49.273Z,98553.86
2023-03-06T09:39:51.805Z,98545.30
2023-03-06T09:44:59.501Z,98542.15
2023-03-06T09:50:14.386Z,98543.37
2023-03-06T09:55:21.680Z,98543.77
2023-03-06T10:00:38.532Z,98541.70
2023-03-06T10:06:09.724Z,98532.19
2023-03-06T10:11:17.540Z,98527.71
2023-03-06T10:16:24.496Z,98527.50
2023-03-06T10:21:34.262Z,98526.95
2023-03-06T10:27:10.855Z,98523.19
2023-03-06T10:32:49.314Z,98521.45
2023-03-06T10:38:01.849Z,98522.22
2023-03-06T10:43:14.077Z,98516.80
2023-03-06T10:48:22.891Z,98518.67
2023-03-06T10:53:30.039Z,98517.20
2023-03-06T10:58:32.938Z,98514.52
2023-03-06T11:03:37.052Z,98512.41
2023-03-06T11:08:42.789Z,98508.63
2023-03-06T11:13:57.041Z,98504.65
2023-03-06T11:19:04.412Z,98501.23
2023-03-06T11:24:19.518Z,98500.25
2023-03-06T11:29:43.530Z,98497.13
2023-03-06T11:35:12.907Z,98496.02
2023-03-06T11:40:31.587Z,98499.97
2023-03-06T11:45:44.167Z,98496.92
2023-03-06T11:50:53.474Z,98495.98
2023-03-06T11:56:23.282Z,98494.29
2023-03-06T12:01:45.112Z,98492.02
2023-03-06T12:06:55.148Z,98493.47
2023-03-06T12:12:03.787Z,98488.70
2023-03-06T12:17:27.378Z,98490.18
2023-03-06T12:22:57.611Z,98491.16
2023-03-06T12:28:19.895Z,98484.95
2023-03-06T12:33:34.270Z,98483.91
2023-03-06T12:38:58.031Z,98484.95
2023-03-06T12:44:06.354Z,98484.69
2023-03-06T12:49:31.918Z,98491.56
2023-03-06T12:54:40.133Z,98491.66
2023-03-06T12:59:47.388Z,98487.46
2023-03-06T13:05:08.961Z,98490.48
2023-03-06T13:10:25.833Z,98485.83
2023-03-06T13:15:45.309Z,98487.70
2023-03-06T13:20:55.452Z,98486.31
2023-03-06T13:26:08.234Z,98483.20
2023-03-06T13:31:27.689Z,98481.91
2023-03-06T13:36:39.839Z,98478.55
2023-03-06T13:42:00.593Z,98471.13
2023-03-06T13:47:20.955Z,98470.21
2023-03-06T13:53:11.715Z,98465.90
2023-03-06T13:58:37.403Z,98464.36
2023-03-06T14:03:48.863Z,98462.40
2023-03-06T14:08:52.985Z,98458.40
2023-03-06T14:13:59.198Z,98456.88
2023-03-06T14:19:03.329Z,98455.01
2023-03-06T14:24:07.226Z,98449.98
2023-03-06T14:29:25.901Z,98452.91
2023-03-06T14:34:33.258Z,98453.45
2023-03-06T14:39:42.687Z,98452.33
2023-03-06T14:44:47.535Z,98448.83
2023-03-06T14:50:26.999Z,98450.16
2023-03-06T14:55:32.486Z,98449.48
2023-03-06T15:00:41.358Z,98458.25
2023-03-06T15:05:47.996Z,98456.41
2023-03-06T15:11:02.762Z,98459.69
2023-03-06T15:16:28.998Z,98453.61
2023-03-06T15:21:38.999Z,98458.59
2023-03-06T15:26:40.997Z,98457.45
2023-03-06T15:31:48.335Z,98456.83
2023-03-06T15:36:56.476Z,98453.91
2023-03-06T15:42:00.085Z,98459.95
2023-03-06T15:47:08.863Z,98460.02
2023-03-06T15:52:13.663Z,98457.70
2023-03-06T15:57:24.458Z,98458.02
2023-03-06T16:02:30.352Z,98460.92
2023-03-06T16:07:35.524Z,98449.46
2023-03-06T16:12:47.440Z,98454.02
2023-03-06T16:17:57.961Z,98456.14
2023-03-06T16:23:01.375Z,98456.31
2023-03-06T16:28:11.741Z,98451.55
2023-03-06T16:33:18.438Z,98454.77
2023-03-06T16:38:27.884Z,98452.05
2023-03-06T16:43:40.784Z,98455.08
2023-03-06T16:48:49.180Z,98452.98
2023-03-06T16:53:55.795Z,98453.86
2023-03-06T16:58:59.566Z,98456.00
2023-03-06T17:04:03.545Z,98458.86
2023-03-06T17:09:07.655Z,98458.13
2023-03-06T17:14:12.070Z,98455.48
2023-03-06T17:19:15.304Z,98452.37
2023-03-06T17:24:20.222Z,98453.66
2023-03-06T17:29:23.624Z,98454.85
2023-03-06T17:34:27.870Z,98460.33
2023-03-06T17:39:39.401Z,98465.25
2023-03-06T17:44:42.213Z,98462.39
2023-03-06T17:49:46.635Z,98462.55
2023-03-06T17:54:50.418Z,98460.58
2023-03-06T17:59:53.826Z,98467.05
2023-03-06T18:04:57.803Z,98466.11
2023-03-06T18:10:02.157Z,98469.14
2023-03-06T18:15:05.805Z,98465.25
2023-03-06T18:20:10.183Z,98461.92
2023-03-06T18:25:13.995Z,98469.45
2023-03-06T18:30:18.324Z,98468.71
2023-03-06T18:35:21.598Z,98468.75
2023-03-06T18:40:25.748Z,98473.56
2023-03-06T18:45:28.608Z,98477.34
2023-03-06T18:50:32.120Z,98478.55
2023-03-06T18:55:34.903Z,98477.33
2023-03-06T19:00:38.915Z,98479.40
2023-03-06T19:05:43.800Z,98483.32
2023-03-06T19:10:54.690Z,98485.71
2023-03-06T19:15:58.806Z,98486.63
2023-03-06T19:21:13.254Z,98483.00
2023-03-06T19:26:18.742Z,98483.88
2023-03-06T19:31:25.375Z,98478.13
2023-03-06T19:36:34.152Z,98484.26
2023-03-06T19:41:38.128Z,98484.05
2023-03-06T19:46:41.673Z,98487.27
2023-03-06T19:51:45.724Z,98492.63
2023-03-06T19:56:49.959Z,98494.30
2023-03-06T20:01:58.052Z,98494.41
2023-03-06T20:07:02.040Z,98495.58
2023-03-06T20:12:09.599Z,98496.03
2023-03-06T20:17:12.416Z,98497.85
2023-03-06T20:22:15.617Z,98501.02
2023-03-06T20:27:19.175Z,98502.73
2023-03-06T20:32:22.752Z,98498.83
2023-03-06T20:37:42.763Z,98497.71
2023-03-06T20:42:46.732Z,98497.62
2023-03-06T20:47:50.336Z,98494.66
2023-03-06T20:52:54.636Z,98492.45
2023-03-06T20:58:00.837Z,98497.70
2023-03-06T21:03:04.139Z,98495.44
2023-03-06T21:08:08.004Z,98493.33
2023-03-06T21:13:11.876Z,98494.02
2023-03-06T21:18:15.961Z,98487.92
2023-03-06T21:23:19.292Z,98490.88
2023-03-06T21:28:22.321Z,98492.61
2023-03-06T21:33:26.378Z,98495.83
2023-03-06T21:38:29.590Z,98497.11
2023-03-06T21:43:31.832Z,98500.36
2023-03-06T21:48:36.127Z,98505.95
2023-03-06T21:53:43.284Z,98510.88
2023-03-06T21:58:46.850Z,98511.63
2023-03-06T22:03:50.601Z,98515.52
2023-03-06T22:08:55.763Z,98514.02
2023-03-06T22:14:00.306Z,98514.13
2023-03-06T22:19:04.000Z,98515.65
2023-03-06T22:24:08.872Z,98519.98
2023-03-06T22:29:11.197Z,98524.23
2023-03-06T22:34:14.609Z,98526.33
2023-03-06T22:39:19.378Z,98518.91
2023-03-06T22:44:22.628Z,98519.94
2023-03-06T22:49:25.871Z,98523.80
2023-03-06T22:54:29.675Z,98524.94
2023-03-06T22:59:32.864Z,98531.71
2023-03-06T23:04:36.654Z,98530.33
2023-03-06T23:09:40.053Z,98534.80
2023-03-06T23:14:49.966Z,98534.29
2023-03-06T23:19:54.287Z,98531.96
2023-03-06T23:24:56.289Z,98531.20
2023-03-06T23:29:59.371Z,98531.42
2023-03-06T23:35:01.852Z,98538.27
2023-03-06T23:40:07.968Z,98533.84
2023-03-06T23:45:11.435Z,98538.15
2023-03-06T23:50:15.804Z,98535.23
2023-03-06T23:55:18.124Z,98534.63
